createdAt,value
2023-11-25T00:03:28.388Z,1.23
2023-11-25T00:21:23.459Z,1.19
2023-11-25T00:25:11.347Z,1.15
2023-11-25T00:28:42.103Z,1.11
2023-11-25T00:32:29.551Z,1.08
2023-11-25T00:36:18.064Z,1.10
2023-11-25T00:40:06.633Z,1.13
2023-11-25T00:43:46.658Z,1.15
2023-11-25T01:09:55.861Z,0.89
2023-11-25T01:13:43.066Z,0.88
2023-11-25T01:17:15.932Z,0.89
2023-11-25T01:20:54.929Z,0.89
2023-11-25T01:24:35.637Z,0.87
2023-11-25T01:37:19.531Z,0.68
2023-11-25T01:40:53.546Z,0.62
2023-11-25T01:44:29.846Z,0.59
2023-11-25T01:48:06.283Z,0.58
2023-11-25T01:56:27.509Z,0.53
2023-11-25T01:59:56.942Z,0.46
2023-11-25T02:08:10.363Z,0.39
2023-11-25T02:11:52.404Z,0.37
2023-11-25T02:33:49.847Z,0.16
2023-11-25T02:37:33.075Z,0.12
2023-11-25T02:55:37.986Z,0.17
2023-11-25T02:59:21.775Z,0.18
2023-11-25T03:03:10.499Z,0.19
2023-11-25T03:06:53.248Z,0.16
2023-11-25T03:10:06.529Z,0.14
2023-11-25T03:22:13.008Z,0.19
2023-11-25T03:25:46.856Z,0.25
2023-11-25T03:29:23.466Z,0.29
2023-11-25T03:33:12.261Z,0.32
2023-11-25T03:36:53.580Z,0.32
2023-11-25T03:40:25.111Z,0.31
2023-11-25T03:44:08.090Z,0.33
2023-11-25T03:47:25.843Z,0.37
2023-11-25T03:51:07.035Z,0.43
2023-11-25T03:54:34.476Z,0.50
2023-11-25T03:58:22.952Z,0.53
2023-11-25T04:10:50.129Z,0.44
2023-11-25T04:13:59.330Z,0.43
2023-11-25T04:17:22.278Z,0.43
2023-11-25T04:20:51.359Z,0.45
2023-11-25T04:24:12.173Z,0.46
2023-11-25T04:27:38.017Z,0.46
2023-11-25T04:31:19.692Z,0.45
2023-11-25T04:39:54.190Z,0.36
2023-11-25T04:43:15.590Z,0.31
2023-11-25T04:46:53.002Z,0.25
2023-11-25T04:50:46.293Z,0.23
2023-11-25T04:54:19.291Z,0.22
2023-11-25T04:58:07.368Z,0.21
2023-11-25T05:16:57.711Z,0.11
2023-11-25T05:29:51.719Z,-0.14
2023-11-25T05:33:27.492Z,-0.24
2023-11-25T05:41:51.277Z,-0.26
2023-11-25T05:45:16.328Z,-0.25
2023-11-25T06:03:09.364Z,-0.11
2023-11-25T06:06:55.457Z,-0.08
2023-11-25T06:14:34.693Z,0.02
2023-11-25T06:18:25.234Z,0.19
2023-11-25T06:22:12.538Z,0.46
2023-11-25T06:25:50.027Z,0.78
2023-11-25T06:29:43.498Z,1.01
2023-11-25T06:33:35.521Z,1.24
2023-11-25T06:37:25.527Z,1.44
2023-11-25T06:46:47.132Z,1.87
2023-11-25T06:49:58.740Z,2.05
2023-11-25T06:53:05.016Z,2.23
2023-11-25T07:06:02.035Z,2.82
2023-11-25T07:10:44.273Z,2.93
2023-11-25T07:13:16.186Z,3.11
2023-11-25T07:16:52.535Z,3.31
2023-11-25T07:24:48.059Z,3.75
2023-11-25T07:27:35.104Z,3.85
2023-11-25T07:30:30.042Z,3.90
2023-11-25T07:33:37.351Z,3.92
2023-11-25T07:36:38.683Z,3.93
2023-11-25T07:39:58.432Z,3.80
2023-11-25T07:42:28.401Z,3.50
2023-11-25T07:50:31.394Z,3.17
2023-11-25T07:53:24.803Z,3.30
2023-11-25T07:56:13.165Z,3.41
2023-11-25T07:58:55.296Z,3.57
2023-11-25T08:01:47.322Z,3.73
2023-11-25T08:04:35.369Z,3.95
2023-11-25T08:07:12.961Z,4.20
2023-11-25T08:09:58.143Z,4.44
2023-11-25T08:12:29.005Z,4.63
2023-11-25T08:15:36.463Z,4.77
2023-11-25T08:18:08.565Z,4.92
2023-11-25T08:21:16.191Z,5.11
2023-11-25T08:23:57.589Z,5.32
2023-11-25T08:31:41.433Z,5.61
2023-11-25T08:34:41.688Z,5.76
2023-11-25T08:37:59.548Z,5.87
2023-11-25T08:40:43.686Z,6.00
2023-11-25T08:43:35.302Z,6.13
2023-11-25T08:46:29.844Z,6.29
2023-11-25T08:49:50.302Z,6.44
2023-11-25T08:52:28.802Z,6.58
2023-11-25T08:55:02.259Z,6.60
2023-11-25T08:57:31.591Z,6.64
2023-11-25T09:00:27.989Z,6.71
2023-11-25T09:03:20.558Z,6.81
2023-11-25T09:06:20.981Z,6.97
2023-11-25T09:08:51.456Z,7.20
2023-11-25T09:12:02.898Z,7.42
2023-11-25T09:15:10.086Z,7.62
2023-11-25T09:18:10.500Z,7.81
2023-11-25T09:21:16.857Z,7.93
2023-11-25T09:24:16.096Z,8.08
2023-11-25T09:32:19.582Z,8.43
2023-11-25T09:35:16.466Z,8.47
2023-11-25T09:38:00.253Z,8.50
2023-11-25T09:40:45.943Z,8.56
2023-11-25T09:43:19.819Z,8.61
2023-11-25T09:45:51.838Z,8.66
2023-11-25T09:48:26.940Z,8.70
2023-11-25T09:51:25.873Z,8.76
2023-11-25T09:54:12.045Z,8.77
2023-11-25T09:57:07.709Z,8.72
2023-11-25T09:59:38.066Z,8.67
2023-11-25T10:02:15.288Z,8.69
2023-11-25T10:04:46.509Z,8.73
2023-11-25T10:07:28.873Z,8.80
2023-11-25T10:10:12.159Z,8.88
2023-11-25T10:12:43.226Z,8.90
2023-11-25T10:15:11.869Z,8.90
2023-11-25T10:17:46.993Z,8.94
2023-11-25T10:21:01.171Z,9.00
2023-11-25T10:23:45.350Z,9.07
2023-11-25T10:26:19.123Z,9.14
2023-11-25T10:28:50.149Z,9.23
2023-11-25T10:31:20.873Z,9.26
2023-11-25T10:33:51.497Z,9.28
2023-11-25T10:37:05.404Z,9.37
2023-11-25T10:40:08.326Z,9.51
2023-11-25T10:43:20.251Z,9.65
2023-11-25T10:46:10.494Z,9.79
2023-11-25T10:48:52.729Z,9.93
2023-11-25T10:51:28.748Z,9.98
2023-11-25T10:54:23.062Z,9.98
2023-11-25T10:57:06.904Z,10.00
2023-11-25T10:59:51.016Z,10.03
2023-11-25T11:02:53.117Z,9.98
2023-11-25T11:06:25.861Z,9.79
2023-11-25T11:09:20.658Z,9.68
2023-11-25T11:12:48.273Z,9.48
2023-11-25T11:16:06.490Z,9.01
2023-11-25T11:33:46.503Z,8.02
2023-11-25T11:41:44.655Z,7.97
2023-11-25T11:44:21.211Z,7.96
2023-11-25T11:47:12.724Z,8.01
2023-11-25T11:49:40.446Z,8.09
2023-11-25T11:52:47.473Z,8.21
2023-11-25T11:55:54.680Z,8.36
2023-11-25T11:59:08.256Z,8.46
2023-11-25T12:07:33.789Z,8.82
2023-11-25T12:10:45.115Z,9.03
2023-11-25T12:13:54.553Z,9.20
2023-11-25T12:17:13.660Z,9.31
2023-11-25T12:25:49.415Z,9.30
2023-11-25T12:29:17.774Z,9.22
2023-11-25T12:41:31.812Z,8.45
2023-11-25T12:44:33.398Z,8.14
2023-11-25T12:47:08.836Z,7.86
2023-11-25T12:49:46.449Z,7.67
2023-11-25T12:52:33.709Z,7.50
2023-11-25T12:55:22.217Z,7.33
2023-11-25T12:58:27.147Z,7.14
2023-11-25T13:01:11.554Z,6.91
2023-11-25T13:03:53.419Z,6.70
2023-11-25T13:07:21.376Z,6.51
2023-11-25T13:10:02.493Z,6.28
2023-11-25T13:12:55.244Z,6.08
2023-11-25T13:16:20.402Z,5.82
2023-11-25T13:19:13.976Z,5.63
2023-11-25T13:21:58.892Z,5.49
2023-11-25T13:25:02.033Z,5.36
2023-11-25T13:27:39.704Z,5.25
2023-11-25T13:30:27.991Z,5.15
2023-11-25T13:33:17.484Z,5.04
2023-11-25T13:36:00.251Z,4.89
2023-11-25T13:39:09.599Z,4.71
2023-11-25T13:41:38.580Z,4.54
2023-11-25T13:44:36.534Z,4.43
2023-11-25T13:47:07.001Z,4.31
2023-11-25T13:49:35.350Z,4.24
2023-11-25T13:52:46.470Z,4.13
2023-11-25T13:55:55.608Z,4.02
2023-11-25T13:59:03.940Z,3.93
2023-11-25T14:01:58.173Z,3.86
2023-11-25T14:04:51.437Z,3.80
2023-11-25T14:07:59.079Z,3.69
2023-11-25T14:11:26.120Z,3.60
2023-11-25T14:14:29.557Z,3.53
2023-11-25T14:17:17.725Z,3.50
2023-11-25T14:20:24.116Z,3.48
2023-11-25T14:23:34.598Z,3.41
2023-11-25T14:26:40.783Z,3.32
2023-11-25T14:29:45.082Z,3.28
2023-11-25T14:33:23.071Z,3.21
2023-11-25T14:41:17.298Z,3.01
2023-11-25T14:44:58.700Z,2.94
2023-11-25T15:29:18.718Z,2.65
2023-11-25T15:37:48.553Z,2.29
2023-11-25T15:41:20.276Z,2.23
2023-11-25T16:03:19.709Z,2.02
2023-11-25T16:07:08.542Z,1.84
2023-11-25T16:10:56.376Z,1.71
2023-11-25T16:14:45.553Z,1.62
2023-11-25T16:22:43.301Z,1.34
2023-11-25T16:26:31.094Z,1.25
2023-11-25T16:30:15.998Z,1.18
2023-11-25T16:34:07.847Z,1.12
2023-11-25T16:52:00.196Z,0.93
2023-11-25T17:18:00.975Z,0.86
2023-11-25T17:21:48.630Z,0.91
2023-11-25T18:07:46.513Z,0.62
2023-11-25T18:11:20.611Z,0.67
2023-11-25T18:15:00.839Z,0.70
2023-11-25T18:18:40.453Z,0.72
2023-11-25T18:27:07.985Z,0.57
2023-11-25T18:30:41.595Z,0.51
2023-11-25T18:43:38.793Z,0.66
2023-11-25T18:47:04.280Z,0.67
2023-11-25T18:50:20.472Z,0.65
2023-11-25T18:58:40.644Z,0.56
2023-11-25T19:02:13.592Z,0.51
2023-11-25T19:14:58.948Z,0.55
2023-11-25T19:18:22.519Z,0.58
2023-11-25T19:22:04.616Z,0.62
2023-11-25T19:25:52.295Z,0.68
2023-11-25T19:29:41.061Z,0.78
2023-11-25T19:33:15.441Z,0.81
2023-11-25T19:36:39.612Z,0.84
2023-11-25T19:40:17.195Z,0.91
2023-11-25T19:53:01.984Z,0.93
2023-11-25T19:56:31.159Z,0.95
2023-11-25T19:59:57.986Z,0.97
2023-11-25T20:03:39.217Z,0.98
2023-11-25T20:07:19.425Z,0.99
2023-11-25T20:10:54.429Z,0.95
2023-11-25T20:14:19.993Z,0.89
2023-11-25T20:17:59.341Z,0.82
2023-11-25T20:21:36.068Z,0.76
2023-11-25T20:25:17.572Z,0.70
2023-11-25T20:29:00.344Z,0.63
2023-11-25T20:32:34.142Z,0.57
2023-11-25T20:36:22.688Z,0.51
2023-11-25T20:40:07.866Z,0.44
2023-11-25T20:43:56.559Z,0.38
2023-11-25T20:47:37.804Z,0.35
2023-11-25T20:51:10.814Z,0.34
2023-11-25T20:54:59.642Z,0.36
2023-11-25T20:58:48.116Z,0.41
2023-11-25T21:02:29.298Z,0.45
2023-11-25T21:06:02.525Z,0.48
2023-11-25T21:09:36.221Z,0.53
2023-11-25T21:13:02.627Z,0.49
2023-11-25T21:16:43.936Z,0.47
2023-11-25T21:20:30.395Z,0.51
2023-11-25T21:24:28.022Z,0.54
2023-11-25T21:28:16.225Z,0.55
2023-11-25T21:32:12.825Z,0.48
2023-11-25T21:35:54.831Z,0.42
2023-11-25T21:39:44.611Z,0.41
2023-11-25T21:43:28.680Z,0.38
2023-11-25T21:47:50.264Z,0.35
2023-11-25T21:51:32.831Z,0.26
2023-11-25T21:55:23.503Z,0.22
2023-11-25T21:59:12.036Z,0.23
2023-11-25T22:03:00.686Z,0.21
2023-11-25T22:06:49.441Z,0.21
2023-11-25T22:10:37.918Z,0.12
2023-11-25T22:14:30.431Z,0.01
2023-11-25T22:18:15.326Z,-0.10
2023-11-25T22:22:03.828Z,-0.17
2023-11-25T22:25:50.852Z,-0.18
2023-11-25T22:29:48.184Z,-0.18
2023-11-25T22:33:28.857Z,-0.18
2023-11-25T22:37:24.575Z,-0.21
2023-11-25T22:41:04.948Z,-0.27
2023-11-25T22:48:45.528Z,-0.44
2023-11-25T22:52:22.184Z,-0.53
2023-11-25T22:56:09.777Z,-0.59
2023-11-25T23:00:14.664Z,-0.65
2023-11-25T23:03:57.125Z,-0.68
2023-11-25T23:07:46.244Z,-0.75
2023-11-25T23:11:27.736Z,-0.80
2023-11-25T23:15:09.295Z,-0.82
2023-11-25T23:18:57.809Z,-0.85
2023-11-25T23:22:37.849Z,-0.86
2023-11-25T23:26:15.175Z,-0.83
2023-11-25T23:29:55.489Z,-0.84
2023-11-25T23:33:42.195Z,-0.83
2023-11-25T23:37:16.175Z,-0.85
2023-11-25T23:41:04.810Z,-0.88
2023-11-25T23:44:51.939Z,-0.93
2023-11-25T23:48:39.673Z,-0.93
2023-11-25T23:52:28.288Z,-0.94
2023-11-25T23:56:22.346Z,-0.93
